sensor_id;sensor_type;location;lat;lon;timestamp;P1;durP1;ratioP1;P2;durP2;ratioP2
7450;SDS011;3767;42.688;23.360;2022-12-08T00:01:03;26.17;;;10.93;;
7450;SDS011;3767;42.688;23.360;2022-12-08T00:03:29;23.90;;;11.57;;
7450;SDS011;3767;42.688;23.360;2022-12-08T00:05:55;22.87;;;10.97;;
7450;SDS011;3767;42.688;23.360;2022-12-08T00:08:41;22.43;;;11.10;;
7450;SDS011;3767;42.688;23.360;2022-12-08T00:11:25;25.33;;;12.13;;
7450;SDS011;3767;42.688;23.360;2022-12-08T00:13:51;23.53;;;11.57;;
7450;SDS011;3767;42.688;23.360;2022-12-08T00:16:18;27.93;;;12.37;;
7450;SDS011;3767;42.688;23.360;2022-12-08T00:18:44;26.57;;;12.00;;
7450;SDS011;3767;42.688;23.360;2022-12-08T00:21:11;26.47;;;12.93;;
7450;SDS011;3767;42.688;23.360;2022-12-08T00:23:38;26.13;;;12.87;;
7450;SDS011;3767;42.688;23.360;2022-12-08T00:26:06;29.47;;;13.90;;
7450;SDS011;3767;42.688;23.360;2022-12-08T00:28:33;32.40;;;14.27;;
7450;SDS011;3767;42.688;23.360;2022-12-08T00:30:59;32.70;;;14.00;;
7450;SDS011;3767;42.688;23.360;2022-12-08T00:33:32;28.83;;;13.10;;
7450;SDS011;3767;42.688;23.360;2022-12-08T00:35:58;27.00;;;12.63;;
7450;SDS011;3767;42.688;23.360;2022-12-08T00:38:29;25.03;;;11.50;;
7450;SDS011;3767;42.688;23.360;2022-12-08T00:40:56;29.03;;;13.07;;
7450;SDS011;3767;42.688;23.360;2022-12-08T00:43:24;28.60;;;12.60;;
7450;SDS011;3767;42.688;23.360;2022-12-08T00:45:50;26.90;;;12.23;;
7450;SDS011;3767;42.688;23.360;2022-12-08T00:48:17;25.30;;;11.87;;
7450;SDS011;3767;42.688;23.360;2022-12-08T00:50:43;25.10;;;11.73;;
7450;SDS011;3767;42.688;23.360;2022-12-08T00:53:10;23.70;;;11.47;;
7450;SDS011;3767;42.688;23.360;2022-12-08T00:55:36;28.77;;;12.30;;
7450;SDS011;3767;42.688;23.360;2022-12-08T00:58:03;25.27;;;12.63;;
7450;SDS011;3767;42.688;23.360;2022-12-08T01:00:31;26.87;;;13.10;;
7450;SDS011;3767;42.688;23.360;2022-12-08T01:02:57;27.70;;;12.50;;
7450;SDS011;3767;42.688;23.360;2022-12-08T01:05:24;25.33;;;11.50;;
7450;SDS011;3767;42.688;23.360;2022-12-08T01:07:50;23.13;;;11.53;;
7450;SDS011;3767;42.688;23.360;2022-12-08T01:10:17;23.40;;;11.03;;
7450;SDS011;3767;42.688;23.360;2022-12-08T01:12:43;27.27;;;11.20;;
7450;SDS011;3767;42.688;23.360;2022-12-08T01:15:10;27.57;;;12.73;;
7450;SDS011;3767;42.688;23.360;2022-12-08T01:17:37;21.60;;;10.63;;
7450;SDS011;3767;42.688;23.360;2022-12-08T01:20:05;26.53;;;11.90;;
7450;SDS011;3767;42.688;23.360;2022-12-08T01:22:32;27.57;;;11.50;;
7450;SDS011;3767;42.688;23.360;2022-12-08T01:24:58;25.33;;;11.40;;
7450;SDS011;3767;42.688;23.360;2022-12-08T01:27:25;27.33;;;12.50;;
7450;SDS011;3767;42.688;23.360;2022-12-08T01:29:51;24.50;;;12.03;;
7450;SDS011;3767;42.688;23.360;2022-12-08T01:32:18;28.83;;;12.87;;
7450;SDS011;3767;42.688;23.360;2022-12-08T01:34:46;26.97;;;12.90;;
7450;SDS011;3767;42.688;23.360;2022-12-08T01:37:12;27.97;;;13.20;;
7450;SDS011;3767;42.688;23.360;2022-12-08T01:39:39;28.53;;;12.40;;
7450;SDS011;3767;42.688;23.360;2022-12-08T01:42:07;27.70;;;13.23;;
7450;SDS011;3767;42.688;23.360;2022-12-08T01:44:50;30.00;;;13.53;;
7450;SDS011;3767;42.688;23.360;2022-12-08T01:47:17;29.13;;;13.60;;
7450;SDS011;3767;42.688;23.360;2022-12-08T01:49:45;31.17;;;13.47;;
7450;SDS011;3767;42.688;23.360;2022-12-08T01:52:13;32.50;;;13.90;;
7450;SDS011;3767;42.688;23.360;2022-12-08T01:54:42;30.77;;;14.70;;
7450;SDS011;3767;42.688;23.360;2022-12-08T01:57:11;35.73;;;15.07;;
7450;SDS011;3767;42.688;23.360;2022-12-08T01:59:40;31.87;;;15.10;;
7450;SDS011;3767;42.688;23.360;2022-12-08T02:02:08;37.50;;;16.00;;
7450;SDS011;3767;42.688;23.360;2022-12-08T02:04:35;34.13;;;14.87;;
7450;SDS011;3767;42.688;23.360;2022-12-08T02:07:03;38.20;;;15.50;;
7450;SDS011;3767;42.688;23.360;2022-12-08T02:09:30;30.70;;;13.87;;
7450;SDS011;3767;42.688;23.360;2022-12-08T02:11:57;30.57;;;14.20;;
7450;SDS011;3767;42.688;23.360;2022-12-08T02:14:24;38.10;;;16.17;;
7450;SDS011;3767;42.688;23.360;2022-12-08T02:16:51;31.60;;;14.43;;
7450;SDS011;3767;42.688;23.360;2022-12-08T02:19:35;30.13;;;13.97;;
7450;SDS011;3767;42.688;23.360;2022-12-08T02:22:09;35.67;;;14.97;;
7450;SDS011;3767;42.688;23.360;2022-12-08T02:24:37;34.27;;;15.17;;
7450;SDS011;3767;42.688;23.360;2022-12-08T02:35:17;32.27;;;13.63;;
7450;SDS011;3767;42.688;23.360;2022-12-08T02:37:47;30.03;;;14.47;;
7450;SDS011;3767;42.688;23.360;2022-12-08T02:40:16;28.93;;;13.13;;
7450;SDS011;3767;42.688;23.360;2022-12-08T02:42:46;28.37;;;13.33;;
7450;SDS011;3767;42.688;23.360;2022-12-08T02:45:15;29.77;;;13.90;;
7450;SDS011;3767;42.688;23.360;2022-12-08T02:47:42;32.93;;;14.13;;
7450;SDS011;3767;42.688;23.360;2022-12-08T02:50:09;31.43;;;14.53;;
7450;SDS011;3767;42.688;23.360;2022-12-08T02:52:43;32.80;;;14.27;;
7450;SDS011;3767;42.688;23.360;2022-12-08T02:55:12;29.93;;;13.90;;
7450;SDS011;3767;42.688;23.360;2022-12-08T02:57:42;27.93;;;13.67;;
7450;SDS011;3767;42.688;23.360;2022-12-08T03:00:13;32.53;;;13.77;;
7450;SDS011;3767;42.688;23.360;2022-12-08T03:02:42;28.83;;;13.53;;
7450;SDS011;3767;42.688;23.360;2022-12-08T03:05:12;29.37;;;13.57;;
7450;SDS011;3767;42.688;23.360;2022-12-08T03:07:46;28.20;;;13.13;;
7450;SDS011;3767;42.688;23.360;2022-12-08T03:10:17;27.80;;;13.13;;
7450;SDS011;3767;42.688;23.360;2022-12-08T03:12:47;27.67;;;12.43;;
7450;SDS011;3767;42.688;23.360;2022-12-08T03:15:15;29.53;;;13.10;;
7450;SDS011;3767;42.688;23.360;2022-12-08T03:17:44;27.00;;;13.27;;
7450;SDS011;3767;42.688;23.360;2022-12-08T03:20:13;28.47;;;13.20;;
7450;SDS011;3767;42.688;23.360;2022-12-08T03:22:41;27.23;;;13.20;;
7450;SDS011;3767;42.688;23.360;2022-12-08T03:25:11;29.50;;;13.20;;
7450;SDS011;3767;42.688;23.360;2022-12-08T03:27:38;26.03;;;13.03;;
7450;SDS011;3767;42.688;23.360;2022-12-08T03:30:06;27.63;;;12.60;;
7450;SDS011;3767;42.688;23.360;2022-12-08T03:32:33;26.03;;;12.43;;
7450;SDS011;3767;42.688;23.360;2022-12-08T03:35:01;27.63;;;12.80;;
7450;SDS011;3767;42.688;23.360;2022-12-08T03:37:28;29.93;;;13.33;;
7450;SDS011;3767;42.688;23.360;2022-12-08T03:39:55;26.60;;;12.83;;
7450;SDS011;3767;42.688;23.360;2022-12-08T03:42:23;26.17;;;13.47;;
7450;SDS011;3767;42.688;23.360;2022-12-08T03:44:49;26.20;;;13.27;;
7450;SDS011;3767;42.688;23.360;2022-12-08T03:47:16;36.30;;;17.20;;
7450;SDS011;3767;42.688;23.360;2022-12-08T03:49:42;38.27;;;17.17;;
7450;SDS011;3767;42.688;23.360;2022-12-08T03:52:08;46.73;;;17.13;;
7450;SDS011;3767;42.688;23.360;2022-12-08T03:54:35;38.67;;;16.60;;
7450;SDS011;3767;42.688;23.360;2022-12-08T03:57:01;36.20;;;16.23;;
7450;SDS011;3767;42.688;23.360;2022-12-08T03:59:29;41.97;;;18.50;;
7450;SDS011;3767;42.688;23.360;2022-12-08T04:01:56;40.17;;;17.10;;
7450;SDS011;3767;42.688;23.360;2022-12-08T04:04:22;36.60;;;16.93;;
7450;SDS011;3767;42.688;23.360;2022-12-08T04:06:49;36.87;;;16.90;;
7450;SDS011;3767;42.688;23.360;2022-12-08T04:09:15;35.63;;;16.37;;
7450;SDS011;3767;42.688;23.360;2022-12-08T04:11:42;35.90;;;17.17;;
7450;SDS011;3767;42.688;23.360;2022-12-08T04:14:08;36.30;;;16.13;;
7450;SDS011;3767;42.688;23.360;2022-12-08T04:16:36;33.97;;;17.07;;
7450;SDS011;3767;42.688;23.360;2022-12-08T04:19:02;37.23;;;16.80;;
7450;SDS011;3767;42.688;23.360;2022-12-08T04:21:29;34.53;;;16.33;;
7450;SDS011;3767;42.688;23.360;2022-12-08T04:23:55;34.33;;;16.20;;
7450;SDS011;3767;42.688;23.360;2022-12-08T04:26:22;33.37;;;16.27;;
7450;SDS011;3767;42.688;23.360;2022-12-08T04:28:49;34.60;;;15.93;;
7450;SDS011;3767;42.688;23.360;2022-12-08T04:31:15;34.87;;;16.50;;
7450;SDS011;3767;42.688;23.360;2022-12-08T04:33:43;35.83;;;16.00;;
7450;SDS011;3767;42.688;23.360;2022-12-08T04:36:09;32.13;;;16.20;;
7450;SDS011;3767;42.688;23.360;2022-12-08T04:38:36;33.07;;;16.40;;
7450;SDS011;3767;42.688;23.360;2022-12-08T04:41:02;36.13;;;16.40;;
7450;SDS011;3767;42.688;23.360;2022-12-08T04:43:29;36.80;;;17.80;;
7450;SDS011;3767;42.688;23.360;2022-12-08T04:45:55;46.00;;;18.00;;
7450;SDS011;3767;42.688;23.360;2022-12-08T04:48:22;38.77;;;17.57;;
7450;SDS011;3767;42.688;23.360;2022-12-08T04:50:50;36.83;;;16.33;;
7450;SDS011;3767;42.688;23.360;2022-12-08T04:53:16;34.90;;;17.57;;
7450;SDS011;3767;42.688;23.360;2022-12-08T04:55:43;38.67;;;17.43;;
7450;SDS011;3767;42.688;23.360;2022-12-08T04:58:13;35.40;;;18.03;;
7450;SDS011;3767;42.688;23.360;2022-12-08T05:00:40;43.87;;;18.77;;
7450;SDS011;3767;42.688;23.360;2022-12-08T05:03:06;39.23;;;19.10;;
7450;SDS011;3767;42.688;23.360;2022-12-08T05:05:33;45.90;;;21.83;;
7450;SDS011;3767;42.688;23.360;2022-12-08T05:08:01;41.37;;;20.03;;
7450;SDS011;3767;42.688;23.360;2022-12-08T05:10:27;42.57;;;19.77;;
7450;SDS011;3767;42.688;23.360;2022-12-08T05:12:54;41.67;;;20.47;;
7450;SDS011;3767;42.688;23.360;2022-12-08T05:15:20;53.97;;;22.53;;
7450;SDS011;3767;42.688;23.360;2022-12-08T05:17:47;45.73;;;22.80;;
7450;SDS011;3767;42.688;23.360;2022-12-08T05:20:13;46.03;;;21.70;;
7450;SDS011;3767;42.688;23.360;2022-12-08T05:22:40;46.30;;;21.97;;
7450;SDS011;3767;42.688;23.360;2022-12-08T05:25:08;41.77;;;20.20;;
7450;SDS011;3767;42.688;23.360;2022-12-08T05:27:35;49.83;;;20.90;;
7450;SDS011;3767;42.688;23.360;2022-12-08T05:30:01;45.67;;;20.83;;
7450;SDS011;3767;42.688;23.360;2022-12-08T05:32:28;43.73;;;19.30;;
7450;SDS011;3767;42.688;23.360;2022-12-08T05:34:54;48.10;;;19.40;;
7450;SDS011;3767;42.688;23.360;2022-12-08T05:37:21;39.03;;;17.50;;
7450;SDS011;3767;42.688;23.360;2022-12-08T05:39:47;39.97;;;17.53;;
7450;SDS011;3767;42.688;23.360;2022-12-08T05:42:15;41.43;;;18.53;;
7450;SDS011;3767;42.688;23.360;2022-12-08T05:44:42;36.63;;;17.93;;
7450;SDS011;3767;42.688;23.360;2022-12-08T05:47:09;42.90;;;19.10;;
7450;SDS011;3767;42.688;23.360;2022-12-08T05:49:35;48.83;;;21.23;;
7450;SDS011;3767;42.688;23.360;2022-12-08T05:52:02;41.97;;;19.17;;
7450;SDS011;3767;42.688;23.360;2022-12-08T05:54:28;41.70;;;18.47;;
7450;SDS011;3767;42.688;23.360;2022-12-08T05:56:55;43.37;;;18.90;;
7450;SDS011;3767;42.688;23.360;2022-12-08T05:59:23;39.83;;;17.77;;
7450;SDS011;3767;42.688;23.360;2022-12-08T06:01:49;37.67;;;17.57;;
7450;SDS011;3767;42.688;23.360;2022-12-08T06:04:16;41.07;;;19.23;;
7450;SDS011;3767;42.688;23.360;2022-12-08T06:06:42;42.70;;;19.40;;
7450;SDS011;3767;42.688;23.360;2022-12-08T06:09:09;38.17;;;18.30;;
7450;SDS011;3767;42.688;23.360;2022-12-08T06:11:36;41.13;;;18.33;;
7450;SDS011;3767;42.688;23.360;2022-12-08T06:14:03;39.60;;;18.80;;
7450;SDS011;3767;42.688;23.360;2022-12-08T06:16:34;35.77;;;17.27;;
7450;SDS011;3767;42.688;23.360;2022-12-08T06:19:02;36.87;;;18.57;;
7450;SDS011;3767;42.688;23.360;2022-12-08T06:21:29;50.50;;;20.77;;
7450;SDS011;3767;42.688;23.360;2022-12-08T06:23:55;47.03;;;20.57;;
7450;SDS011;3767;42.688;23.360;2022-12-08T06:26:22;47.33;;;19.50;;
7450;SDS011;3767;42.688;23.360;2022-12-08T06:28:50;41.07;;;18.57;;
7450;SDS011;3767;42.688;23.360;2022-12-08T06:31:17;50.07;;;22.57;;
7450;SDS011;3767;42.688;23.360;2022-12-08T06:33:46;56.97;;;25.30;;
7450;SDS011;3767;42.688;23.360;2022-12-08T06:36:13;57.20;;;24.20;;
7450;SDS011;3767;42.688;23.360;2022-12-08T06:38:39;57.40;;;24.73;;
7450;SDS011;3767;42.688;23.360;2022-12-08T06:41:06;49.27;;;23.77;;
7450;SDS011;3767;42.688;23.360;2022-12-08T06:43:33;43.20;;;20.33;;
7450;SDS011;3767;42.688;23.360;2022-12-08T06:45:59;54.13;;;22.40;;
7450;SDS011;3767;42.688;23.360;2022-12-08T06:48:26;41.73;;;18.50;;
7450;SDS011;3767;42.688;23.360;2022-12-08T06:50:54;39.50;;;18.70;;
7450;SDS011;3767;42.688;23.360;2022-12-08T06:53:20;42.57;;;19.70;;
7450;SDS011;3767;42.688;23.360;2022-12-08T06:55:49;35.00;;;16.83;;
7450;SDS011;3767;42.688;23.360;2022-12-08T06:58:17;35.90;;;16.67;;
7450;SDS011;3767;42.688;23.360;2022-12-08T07:00:43;32.73;;;16.50;;
7450;SDS011;3767;42.688;23.360;2022-12-08T07:03:10;36.63;;;15.37;;
7450;SDS011;3767;42.688;23.360;2022-12-08T07:05:37;33.43;;;15.20;;
7450;SDS011;3767;42.688;23.360;2022-12-08T07:08:05;33.83;;;16.43;;
7450;SDS011;3767;42.688;23.360;2022-12-08T07:10:32;37.43;;;16.47;;
7450;SDS011;3767;42.688;23.360;2022-12-08T07:12:59;35.50;;;16.93;;
7450;SDS011;3767;42.688;23.360;2022-12-08T07:15:26;36.07;;;16.63;;
7450;SDS011;3767;42.688;23.360;2022-12-08T07:17:53;31.33;;;16.57;;
7450;SDS011;3767;42.688;23.360;2022-12-08T07:20:19;36.77;;;18.03;;
7450;SDS011;3767;42.688;23.360;2022-12-08T07:22:47;42.53;;;18.93;;
7450;SDS011;3767;42.688;23.360;2022-12-08T07:25:15;39.27;;;19.90;;
7450;SDS011;3767;42.688;23.360;2022-12-08T07:27:41;41.90;;;19.67;;
7450;SDS011;3767;42.688;23.360;2022-12-08T07:30:08;41.87;;;19.87;;
7450;SDS011;3767;42.688;23.360;2022-12-08T07:32:35;50.90;;;23.57;;
7450;SDS011;3767;42.688;23.360;2022-12-08T07:35:01;55.43;;;25.10;;
7450;SDS011;3767;42.688;23.360;2022-12-08T07:37:28;55.43;;;27.00;;
7450;SDS011;3767;42.688;23.360;2022-12-08T07:39:54;68.63;;;30.10;;
7450;SDS011;3767;42.688;23.360;2022-12-08T07:42:22;64.80;;;28.37;;
7450;SDS011;3767;42.688;23.360;2022-12-08T07:44:49;63.93;;;27.53;;
7450;SDS011;3767;42.688;23.360;2022-12-08T07:47:15;65.97;;;27.63;;
7450;SDS011;3767;42.688;23.360;2022-12-08T07:49:42;61.53;;;26.87;;
7450;SDS011;3767;42.688;23.360;2022-12-08T07:52:08;69.33;;;28.03;;
7450;SDS011;3767;42.688;23.360;2022-12-08T07:54:35;63.10;;;26.60;;
7450;SDS011;3767;42.688;23.360;2022-12-08T07:57:01;65.57;;;27.23;;
7450;SDS011;3767;42.688;23.360;2022-12-08T07:59:31;63.57;;;27.13;;
7450;SDS011;3767;42.688;23.360;2022-12-08T08:01:57;69.43;;;28.60;;
7450;SDS011;3767;42.688;23.360;2022-12-08T08:04:24;58.27;;;27.20;;
7450;SDS011;3767;42.688;23.360;2022-12-08T08:06:50;57.67;;;25.03;;
7450;SDS011;3767;42.688;23.360;2022-12-08T08:09:17;61.33;;;26.63;;
7450;SDS011;3767;42.688;23.360;2022-12-08T08:11:43;62.80;;;26.17;;
7450;SDS011;3767;42.688;23.360;2022-12-08T08:14:10;51.13;;;24.03;;
7450;SDS011;3767;42.688;23.360;2022-12-08T08:16:38;57.73;;;25.17;;
7450;SDS011;3767;42.688;23.360;2022-12-08T08:19:06;53.33;;;22.27;;
7450;SDS011;3767;42.688;23.360;2022-12-08T08:21:32;47.73;;;20.03;;
7450;SDS011;3767;42.688;23.360;2022-12-08T08:23:58;53.33;;;21.47;;
7450;SDS011;3767;42.688;23.360;2022-12-08T08:26:25;39.83;;;19.53;;
7450;SDS011;3767;42.688;23.360;2022-12-08T08:28:51;33.67;;;16.83;;
7450;SDS011;3767;42.688;23.360;2022-12-08T08:31:22;39.83;;;19.70;;
7450;SDS011;3767;42.688;23.360;2022-12-08T08:33:50;39.47;;;17.83;;
7450;SDS011;3767;42.688;23.360;2022-12-08T08:36:17;43.97;;;17.83;;
7450;SDS011;3767;42.688;23.360;2022-12-08T08:38:43;36.93;;;17.60;;
7450;SDS011;3767;42.688;23.360;2022-12-08T08:41:10;48.13;;;20.43;;
7450;SDS011;3767;42.688;23.360;2022-12-08T08:43:36;45.00;;;21.60;;
7450;SDS011;3767;42.688;23.360;2022-12-08T08:46:03;50.47;;;22.57;;
7450;SDS011;3767;42.688;23.360;2022-12-08T08:48:30;55.97;;;25.47;;
7450;SDS011;3767;42.688;23.360;2022-12-08T08:51:04;51.50;;;22.43;;
7450;SDS011;3767;42.688;23.360;2022-12-08T08:53:31;58.57;;;23.20;;
7450;SDS011;3767;42.688;23.360;2022-12-08T08:55:57;49.57;;;21.07;;
7450;SDS011;3767;42.688;23.360;2022-12-08T08:58:24;43.57;;;19.30;;
7450;SDS011;3767;42.688;23.360;2022-12-08T09:00:51;37.70;;;18.77;;
7450;SDS011;3767;42.688;23.360;2022-12-08T09:03:17;37.50;;;18.70;;
7450;SDS011;3767;42.688;23.360;2022-12-08T09:05:44;38.67;;;19.37;;
7450;SDS011;3767;42.688;23.360;2022-12-08T09:08:12;45.17;;;20.30;;
7450;SDS011;3767;42.688;23.360;2022-12-08T09:10:38;43.80;;;19.30;;
7450;SDS011;3767;42.688;23.360;2022-12-08T09:13:05;52.87;;;19.63;;
7450;SDS011;3767;42.688;23.360;2022-12-08T09:15:31;35.23;;;17.80;;
7450;SDS011;3767;42.688;23.360;2022-12-08T09:17:58;34.90;;;18.37;;
7450;SDS011;3767;42.688;23.360;2022-12-08T09:20:24;39.07;;;17.63;;
7450;SDS011;3767;42.688;23.360;2022-12-08T09:22:51;40.37;;;20.63;;
7450;SDS011;3767;42.688;23.360;2022-12-08T09:25:18;56.03;;;25.30;;
7450;SDS011;3767;42.688;23.360;2022-12-08T09:27:45;31.07;;;15.77;;
7450;SDS011;3767;42.688;23.360;2022-12-08T09:30:11;43.20;;;20.63;;
7450;SDS011;3767;42.688;23.360;2022-12-08T09:32:38;37.03;;;17.67;;
7450;SDS011;3767;42.688;23.360;2022-12-08T09:35:05;40.63;;;21.47;;
7450;SDS011;3767;42.688;23.360;2022-12-08T09:37:31;50.50;;;24.07;;
7450;SDS011;3767;42.688;23.360;2022-12-08T09:39:58;32.30;;;16.50;;
7450;SDS011;3767;42.688;23.360;2022-12-08T09:42:28;28.70;;;16.27;;
7450;SDS011;3767;42.688;23.360;2022-12-08T09:44:57;34.27;;;17.20;;
7450;SDS011;3767;42.688;23.360;2022-12-08T09:47:26;57.97;;;29.90;;
7450;SDS011;3767;42.688;23.360;2022-12-08T09:49:56;76.33;;;34.80;;
7450;SDS011;3767;42.688;23.360;2022-12-08T09:52:24;74.07;;;35.20;;
7450;SDS011;3767;42.688;23.360;2022-12-08T09:54:52;69.53;;;33.83;;
7450;SDS011;3767;42.688;23.360;2022-12-08T09:57:19;59.27;;;30.23;;
7450;SDS011;3767;42.688;23.360;2022-12-08T09:59:50;62.63;;;29.63;;
7450;SDS011;3767;42.688;23.360;2022-12-08T10:02:19;50.90;;;26.57;;
7450;SDS011;3767;42.688;23.360;2022-12-08T10:04:46;53.40;;;26.00;;
7450;SDS011;3767;42.688;23.360;2022-12-08T10:07:15;49.77;;;24.80;;
7450;SDS011;3767;42.688;23.360;2022-12-08T10:09:44;45.90;;;23.83;;
7450;SDS011;3767;42.688;23.360;2022-12-08T10:12:13;38.93;;;20.00;;
7450;SDS011;3767;42.688;23.360;2022-12-08T10:14:42;41.83;;;20.07;;
7450;SDS011;3767;42.688;23.360;2022-12-08T10:17:13;37.97;;;19.07;;
7450;SDS011;3767;42.688;23.360;2022-12-08T10:19:42;34.60;;;18.23;;
7450;SDS011;3767;42.688;23.360;2022-12-08T10:22:11;30.03;;;17.40;;
7450;SDS011;3767;42.688;23.360;2022-12-08T10:24:42;26.85;;;15.60;;
7450;SDS011;3767;42.688;23.360;2022-12-08T10:27:10;24.05;;;14.80;;
7450;SDS011;3767;42.688;23.360;2022-12-08T10:29:37;25.38;;;14.68;;
7450;SDS011;3767;42.688;23.360;2022-12-08T10:32:08;27.23;;;15.10;;
7450;SDS011;3767;42.688;23.360;2022-12-08T10:34:36;30.70;;;17.27;;
7450;SDS011;3767;42.688;23.360;2022-12-08T10:37:22;31.27;;;16.90;;
7450;SDS011;3767;42.688;23.360;2022-12-08T10:39:55;30.90;;;15.55;;
7450;SDS011;3767;42.688;23.360;2022-12-08T10:42:23;32.80;;;15.65;;
7450;SDS011;3767;42.688;23.360;2022-12-08T10:44:54;23.83;;;13.45;;
7450;SDS011;3767;42.688;23.360;2022-12-08T10:47:24;22.15;;;12.75;;
7450;SDS011;3767;42.688;23.360;2022-12-08T10:50:11;22.70;;;13.95;;
7450;SDS011;3767;42.688;23.360;2022-12-08T10:52:42;19.05;;;12.45;;
7450;SDS011;3767;42.688;23.360;2022-12-08T10:55:12;24.58;;;15.02;;
7450;SDS011;3767;42.688;23.360;2022-12-08T10:57:39;26.80;;;11.00;;
7450;SDS011;3767;42.688;23.360;2022-12-08T11:00:06;24.23;;;11.30;;
7450;SDS011;3767;42.688;23.360;2022-12-08T11:02:33;19.13;;;10.73;;
7450;SDS011;3767;42.688;23.360;2022-12-08T11:04:59;20.77;;;10.93;;
7450;SDS011;3767;42.688;23.360;2022-12-08T11:07:27;20.10;;;11.40;;
7450;SDS011;3767;42.688;23.360;2022-12-08T11:09:54;21.30;;;11.33;;
7450;SDS011;3767;42.688;23.360;2022-12-08T11:12:22;24.53;;;11.60;;
7450;SDS011;3767;42.688;23.360;2022-12-08T11:14:53;22.53;;;11.77;;
7450;SDS011;3767;42.688;23.360;2022-12-08T11:17:23;19.47;;;10.63;;
7450;SDS011;3767;42.688;23.360;2022-12-08T11:19:54;19.80;;;10.43;;
7450;SDS011;3767;42.688;23.360;2022-12-08T11:22:22;22.93;;;11.23;;
7450;SDS011;3767;42.688;23.360;2022-12-08T11:24:57;24.33;;;11.37;;
7450;SDS011;3767;42.688;23.360;2022-12-08T11:27:24;23.63;;;11.13;;
7450;SDS011;3767;42.688;23.360;2022-12-08T11:29:50;19.53;;;11.03;;
7450;SDS011;3767;42.688;23.360;2022-12-08T11:32:17;26.37;;;12.17;;
7450;SDS011;3767;42.688;23.360;2022-12-08T11:34:45;20.83;;;11.90;;
7450;SDS011;3767;42.688;23.360;2022-12-08T11:37:15;28.53;;;12.60;;
7450;SDS011;3767;42.688;23.360;2022-12-08T11:39:45;20.60;;;11.23;;
7450;SDS011;3767;42.688;23.360;2022-12-08T11:42:14;19.43;;;11.27;;
7450;SDS011;3767;42.688;23.360;2022-12-08T11:44:44;19.70;;;11.10;;
7450;SDS011;3767;42.688;23.360;2022-12-08T11:47:13;21.37;;;10.37;;
7450;SDS011;3767;42.688;23.360;2022-12-08T11:49:40;18.53;;;10.90;;
7450;SDS011;3767;42.688;23.360;2022-12-08T11:52:10;20.57;;;10.00;;
7450;SDS011;3767;42.688;23.360;2022-12-08T11:54:41;16.70;;;8.07;;
7450;SDS011;3767;42.688;23.360;2022-12-08T11:57:11;18.25;;;8.35;;
7450;SDS011;3767;42.688;23.360;2022-12-08T11:59:41;19.20;;;9.13;;
7450;SDS011;3767;42.688;23.360;2022-12-08T12:02:11;22.00;;;9.50;;
7450;SDS011;3767;42.688;23.360;2022-12-08T12:04:40;25.87;;;12.90;;
7450;SDS011;3767;42.688;23.360;2022-12-08T12:09:58;14.77;;;8.18;;
7450;SDS011;3767;42.688;23.360;2022-12-08T12:12:30;16.85;;;8.32;;
7450;SDS011;3767;42.688;23.360;2022-12-08T12:17:54;14.82;;;8.07;;
7450;SDS011;3767;42.688;23.360;2022-12-08T12:20:24;9.68;;;6.13;;
7450;SDS011;3767;42.688;23.360;2022-12-08T12:22:54;9.90;;;6.75;;
7450;SDS011;3767;42.688;23.360;2022-12-08T12:25:22;10.55;;;7.03;;
7450;SDS011;3767;42.688;23.360;2022-12-08T12:27:50;15.93;;;7.38;;
7450;SDS011;3767;42.688;23.360;2022-12-08T12:30:18;10.43;;;7.63;;
7450;SDS011;3767;42.688;23.360;2022-12-08T12:32:46;14.15;;;8.55;;
7450;SDS011;3767;42.688;23.360;2022-12-08T12:35:17;18.23;;;9.23;;
7450;SDS011;3767;42.688;23.360;2022-12-08T12:37:45;14.57;;;9.52;;
7450;SDS011;3767;42.688;23.360;2022-12-08T12:40:15;16.98;;;10.25;;
7450;SDS011;3767;42.688;23.360;2022-12-08T12:42:43;17.30;;;9.80;;
7450;SDS011;3767;42.688;23.360;2022-12-08T12:45:26;15.85;;;9.32;;
7450;SDS011;3767;42.688;23.360;2022-12-08T12:50:41;18.75;;;8.65;;
7450;SDS011;3767;42.688;23.360;2022-12-08T12:55:51;13.13;;;8.38;;
7450;SDS011;3767;42.688;23.360;2022-12-08T12:58:19;14.15;;;8.85;;
7450;SDS011;3767;42.688;23.360;2022-12-08T13:00:46;11.93;;;9.23;;
7450;SDS011;3767;42.688;23.360;2022-12-08T13:03:13;28.83;;;14.25;;
7450;SDS011;3767;42.688;23.360;2022-12-08T13:05:46;21.13;;;12.38;;
7450;SDS011;3767;42.688;23.360;2022-12-08T13:08:15;20.63;;;12.50;;
7450;SDS011;3767;42.688;23.360;2022-12-08T13:10:46;21.83;;;12.27;;
7450;SDS011;3767;42.688;23.360;2022-12-08T13:13:15;23.90;;;12.55;;
7450;SDS011;3767;42.688;23.360;2022-12-08T13:15:46;23.93;;;13.63;;
7450;SDS011;3767;42.688;23.360;2022-12-08T13:18:15;25.13;;;14.10;;
7450;SDS011;3767;42.688;23.360;2022-12-08T13:20:46;19.83;;;12.63;;
7450;SDS011;3767;42.688;23.360;2022-12-08T13:23:26;23.17;;;11.97;;
7450;SDS011;3767;42.688;23.360;2022-12-08T13:31:34;15.30;;;9.37;;
7450;SDS011;3767;42.688;23.360;2022-12-08T13:34:02;18.67;;;9.30;;
7450;SDS011;3767;42.688;23.360;2022-12-08T13:36:31;17.13;;;9.27;;
7450;SDS011;3767;42.688;23.360;2022-12-08T13:38:58;13.37;;;8.70;;
7450;SDS011;3767;42.688;23.360;2022-12-08T13:41:28;17.00;;;8.90;;
7450;SDS011;3767;42.688;23.360;2022-12-08T13:43:57;19.57;;;10.17;;
7450;SDS011;3767;42.688;23.360;2022-12-08T13:46:28;14.27;;;8.87;;
7450;SDS011;3767;42.688;23.360;2022-12-08T13:48:56;17.27;;;9.63;;
7450;SDS011;3767;42.688;23.360;2022-12-08T13:51:25;25.80;;;11.30;;
7450;SDS011;3767;42.688;23.360;2022-12-08T13:53:57;21.43;;;9.77;;
7450;SDS011;3767;42.688;23.360;2022-12-08T13:56:24;22.93;;;12.03;;
7450;SDS011;3767;42.688;23.360;2022-12-08T13:58:52;22.00;;;10.13;;
7450;SDS011;3767;42.688;23.360;2022-12-08T14:01:31;20.33;;;10.83;;
7450;SDS011;3767;42.688;23.360;2022-12-08T14:03:59;24.80;;;10.80;;
7450;SDS011;3767;42.688;23.360;2022-12-08T14:06:27;24.40;;;11.03;;
7450;SDS011;3767;42.688;23.360;2022-12-08T14:08:55;24.83;;;11.77;;
7450;SDS011;3767;42.688;23.360;2022-12-08T14:11:26;20.90;;;11.97;;
7450;SDS011;3767;42.688;23.360;2022-12-08T14:14:02;20.90;;;11.40;;
7450;SDS011;3767;42.688;23.360;2022-12-08T14:16:32;31.70;;;12.63;;
7450;SDS011;3767;42.688;23.360;2022-12-08T14:19:03;23.97;;;10.83;;
7450;SDS011;3767;42.688;23.360;2022-12-08T14:21:29;23.63;;;12.37;;
7450;SDS011;3767;42.688;23.360;2022-12-08T14:23:59;26.77;;;12.77;;
7450;SDS011;3767;42.688;23.360;2022-12-08T14:26:27;38.53;;;18.20;;
7450;SDS011;3767;42.688;23.360;2022-12-08T14:28:54;39.27;;;18.63;;
7450;SDS011;3767;42.688;23.360;2022-12-08T14:31:21;30.73;;;16.97;;
7450;SDS011;3767;42.688;23.360;2022-12-08T14:33:47;35.50;;;18.10;;
7450;SDS011;3767;42.688;23.360;2022-12-08T14:36:14;47.93;;;20.30;;
7450;SDS011;3767;42.688;23.360;2022-12-08T14:38:41;54.27;;;24.37;;
7450;SDS011;3767;42.688;23.360;2022-12-08T14:41:07;67.87;;;27.43;;
7450;SDS011;3767;42.688;23.360;2022-12-08T14:43:37;58.10;;;27.40;;
7450;SDS011;3767;42.688;23.360;2022-12-08T14:46:18;58.77;;;27.00;;
7450;SDS011;3767;42.688;23.360;2022-12-08T14:48:45;63.23;;;25.87;;
7450;SDS011;3767;42.688;23.360;2022-12-08T14:51:13;56.63;;;25.63;;
7450;SDS011;3767;42.688;23.360;2022-12-08T14:53:41;47.57;;;22.50;;
7450;SDS011;3767;42.688;23.360;2022-12-08T14:56:12;48.97;;;23.83;;
7450;SDS011;3767;42.688;23.360;2022-12-08T14:58:41;50.93;;;24.57;;
7450;SDS011;3767;42.688;23.360;2022-12-08T15:01:10;53.37;;;24.50;;
7450;SDS011;3767;42.688;23.360;2022-12-08T15:03:37;52.07;;;23.03;;
7450;SDS011;3767;42.688;23.360;2022-12-08T15:06:05;46.40;;;23.00;;